createdAt,value
2023-05-24T00:00:53.463Z,21.52
2023-05-24T00:03:24.107Z,15.80
2023-05-24T00:05:54.584Z,19.50
2023-05-24T00:08:24.994Z,16.42
2023-05-24T00:10:55.280Z,14.90
2023-05-24T00:13:25.990Z,24.60
2023-05-24T00:15:56.298Z,13.55
2023-05-24T00:18:26.623Z,11.40
2023-05-24T00:20:58.698Z,20.83
2023-05-24T00:23:29.119Z,14.60
2023-05-24T00:25:59.874Z,13.88
2023-05-24T00:28:31.490Z,15.15
2023-05-24T00:31:02.346Z,18.55
2023-05-24T00:33:32.527Z,14.70
2023-05-24T00:36:02.828Z,21.67
2023-05-24T00:38:33.085Z,15.55
2023-05-24T00:41:03.424Z,13.00
2023-05-24T00:43:33.644Z,22.20
2023-05-24T00:46:22.530Z,27.58
2023-05-24T00:48:53.279Z,16.25
2023-05-24T00:51:30.462Z,23.55
2023-05-24T00:53:58.586Z,23.83
2023-05-24T00:56:28.016Z,26.45
2023-05-24T00:58:58.666Z,17.98
2023-05-24T01:01:31.357Z,20.35
2023-05-24T01:04:00.630Z,19.83
2023-05-24T01:06:36.502Z,25.85
2023-05-24T01:09:32.316Z,20.10
2023-05-24T01:12:26.693Z,16.00
2023-05-24T01:15:23.933Z,24.30
2023-05-24T01:18:11.809Z,21.15
2023-05-24T01:20:45.215Z,18.02
2023-05-24T01:23:34.548Z,17.73
2023-05-24T01:26:54.173Z,17.52
2023-05-24T01:29:29.097Z,15.13
2023-05-24T01:31:59.014Z,16.27
2023-05-24T01:34:27.395Z,13.32
2023-05-24T01:36:55.971Z,18.80
2023-05-24T01:39:29.963Z,16.52
2023-05-24T01:43:02.590Z,22.52
2023-05-24T01:45:56.970Z,25.10
2023-05-24T01:49:03.958Z,24.27
2023-05-24T01:51:54.538Z,16.90
2023-05-24T01:54:33.387Z,14.80
2023-05-24T01:59:44.742Z,21.73
2023-05-24T02:02:14.365Z,16.30
2023-05-24T02:04:44.447Z,21.80
2023-05-24T02:07:14.381Z,19.30
2023-05-24T02:09:44.407Z,19.52
2023-05-24T02:12:18.130Z,22.38
2023-05-24T02:14:51.305Z,15.95
2023-05-24T02:17:21.465Z,15.05
2023-05-24T02:19:51.385Z,20.98
2023-05-24T02:22:22.560Z,20.23
2023-05-24T02:24:53.709Z,21.58
2023-05-24T02:27:22.722Z,15.25
2023-05-24T02:29:53.083Z,22.80
2023-05-24T02:32:23.349Z,16.48
2023-05-24T02:34:53.261Z,20.52
2023-05-24T02:37:23.159Z,15.88
2023-05-24T02:39:53.608Z,17.55
2023-05-24T02:42:23.857Z,19.42
2023-05-24T02:44:54.176Z,12.88
2023-05-24T02:47:23.952Z,22.27
2023-05-24T02:49:55.638Z,23.77
2023-05-24T02:52:27.088Z,21.35
2023-05-24T02:54:56.458Z,14.25
2023-05-24T02:57:26.966Z,30.00
2023-05-24T02:59:56.398Z,18.38
2023-05-24T03:02:28.933Z,20.42
2023-05-24T03:04:59.234Z,27.05
2023-05-24T03:07:27.890Z,29.05
2023-05-24T03:09:56.456Z,20.75
2023-05-24T03:12:25.181Z,20.05
2023-05-24T03:14:53.570Z,18.40
2023-05-24T03:17:22.055Z,18.33
2023-05-24T03:19:51.195Z,20.80
2023-05-24T03:22:20.060Z,22.95
2023-05-24T03:24:50.418Z,20.27
2023-05-24T03:27:19.217Z,17.15
2023-05-24T03:29:47.837Z,20.83
2023-05-24T03:32:16.372Z,25.10
2023-05-24T03:34:44.605Z,26.67
2023-05-24T03:37:14.560Z,24.27
2023-05-24T03:39:43.093Z,20.67
2023-05-24T03:42:17.097Z,17.40
2023-05-24T03:44:44.752Z,15.77
2023-05-24T03:47:13.206Z,15.43
2023-05-24T03:49:41.712Z,13.73
2023-05-24T03:52:09.944Z,22.83
2023-05-24T03:54:38.876Z,20.20
2023-05-24T03:57:07.810Z,20.48
2023-05-24T03:59:35.336Z,17.52
2023-05-24T04:02:03.972Z,16.38
2023-05-24T04:04:32.451Z,19.67
2023-05-24T04:07:00.912Z,18.60
2023-05-24T04:09:29.684Z,22.83
2023-05-24T04:11:57.886Z,20.33
2023-05-24T04:14:26.434Z,15.77
2023-05-24T04:16:57.698Z,19.58
2023-05-24T04:19:28.086Z,17.63
2023-05-24T04:21:58.444Z,16.17
2023-05-24T04:24:28.771Z,16.30
2023-05-24T04:26:59.047Z,19.33
2023-05-24T04:29:29.344Z,14.27
2023-05-24T04:32:00.955Z,21.80
2023-05-24T04:34:33.971Z,27.42
2023-05-24T04:37:04.546Z,15.93
2023-05-24T04:39:34.961Z,16.25
2023-05-24T04:42:10.020Z,25.35
2023-05-24T04:44:43.633Z,13.90
2023-05-24T04:47:15.380Z,15.10
2023-05-24T04:49:45.275Z,18.95
2023-05-24T04:52:13.848Z,14.48
2023-05-24T04:54:42.264Z,21.05
2023-05-24T04:57:10.652Z,18.90
2023-05-24T04:59:39.041Z,19.85
2023-05-24T05:02:07.537Z,20.73
2023-05-24T05:04:35.908Z,12.98
2023-05-24T05:07:04.537Z,18.15
2023-05-24T05:09:33.773Z,30.45
2023-05-24T05:12:02.972Z,19.60
2023-05-24T05:14:33.568Z,19.88
2023-05-24T05:17:03.819Z,15.27
2023-05-24T05:19:34.133Z,18.73
2023-05-24T05:22:04.588Z,23.85
2023-05-24T05:24:34.947Z,18.05
2023-05-24T05:27:06.421Z,26.17
2023-05-24T05:29:36.645Z,19.75
2023-05-24T05:32:07.360Z,21.80
2023-05-24T05:34:40.554Z,18.67
2023-05-24T05:37:11.257Z,31.63
2023-05-24T05:39:41.510Z,21.38
2023-05-24T05:42:14.693Z,26.55
2023-05-24T05:44:45.032Z,21.63
2023-05-24T05:47:15.395Z,25.13
2023-05-24T05:49:45.639Z,29.40
2023-05-24T05:52:15.870Z,20.42
2023-05-24T05:54:46.078Z,26.88
2023-05-24T05:57:16.565Z,22.73
2023-05-24T05:59:46.815Z,20.55
2023-05-24T06:02:19.182Z,31.33
2023-05-24T06:04:51.254Z,21.88
2023-05-24T06:07:21.589Z,31.98
2023-05-24T06:09:52.228Z,25.25
2023-05-24T06:12:22.857Z,22.25
2023-05-24T06:14:53.103Z,24.52
2023-05-24T06:17:24.786Z,36.80
2023-05-24T06:19:56.181Z,30.40
2023-05-24T06:22:29.989Z,23.35
2023-05-24T06:25:00.280Z,26.90
2023-05-24T06:27:30.738Z,19.38
2023-05-24T06:30:01.129Z,26.55
2023-05-24T06:32:31.503Z,31.02
2023-05-24T06:35:01.733Z,26.25
2023-05-24T06:37:31.973Z,27.45
2023-05-24T06:40:02.498Z,28.92
2023-05-24T06:42:32.710Z,27.88
2023-05-24T06:45:04.165Z,30.63
2023-05-24T06:47:34.475Z,20.73
2023-05-24T06:50:05.588Z,23.30
2023-05-24T06:52:36.379Z,25.17
2023-05-24T06:55:07.017Z,28.52
2023-05-24T06:57:37.214Z,33.63
2023-05-24T07:00:12.308Z,26.25
2023-05-24T07:02:42.794Z,18.67
2023-05-24T07:05:13.385Z,22.08
2023-05-24T07:07:44.572Z,22.88
2023-05-24T07:10:15.038Z,23.55
2023-05-24T07:12:43.426Z,27.17
2023-05-24T07:15:11.920Z,21.75
2023-05-24T07:17:42.133Z,23.73
2023-05-24T07:20:12.011Z,29.13
2023-05-24T07:22:42.109Z,26.33
2023-05-24T07:25:11.161Z,24.05
2023-05-24T07:27:39.001Z,30.20
2023-05-24T07:30:19.673Z,26.73
2023-05-24T07:32:59.049Z,31.95
2023-05-24T07:35:29.538Z,24.75
2023-05-24T07:37:58.828Z,24.88
2023-05-24T07:40:27.277Z,27.27
2023-05-24T07:42:56.294Z,28.55
2023-05-24T07:45:24.499Z,24.35
2023-05-24T07:47:54.503Z,23.10
2023-05-24T07:50:27.316Z,18.67
2023-05-24T07:52:57.883Z,24.10
2023-05-24T07:55:28.672Z,25.73
2023-05-24T07:57:57.016Z,23.85
2023-05-24T08:00:30.265Z,27.90
2023-05-24T08:03:00.980Z,24.10
2023-05-24T08:05:31.906Z,28.08
2023-05-24T08:08:02.132Z,22.30
2023-05-24T08:10:31.063Z,29.38
2023-05-24T08:13:01.353Z,22.88
2023-05-24T08:15:29.977Z,26.48
2023-05-24T08:18:00.335Z,21.38
2023-05-24T08:20:30.797Z,23.15
2023-05-24T08:23:01.789Z,27.00
2023-05-24T08:25:32.257Z,37.50
2023-05-24T08:28:02.733Z,27.67
2023-05-24T08:30:33.240Z,28.45
2023-05-24T08:33:03.728Z,29.52
2023-05-24T08:35:36.179Z,25.88
2023-05-24T08:38:07.776Z,33.00
2023-05-24T08:40:38.715Z,27.63
2023-05-24T08:43:12.245Z,25.27
2023-05-24T08:45:45.246Z,20.38
2023-05-24T08:48:18.578Z,22.88
2023-05-24T08:50:50.838Z,24.73
2023-05-24T08:53:23.852Z,20.02
2023-05-24T08:55:56.470Z,41.53
2023-05-24T08:58:27.286Z,25.83
2023-05-24T09:01:02.274Z,26.13
2023-05-24T09:03:37.013Z,26.02
2023-05-24T09:06:11.212Z,22.13
2023-05-24T09:08:44.182Z,20.10
2023-05-24T09:11:18.720Z,37.25
2023-05-24T09:13:50.058Z,23.25
2023-05-24T09:16:20.475Z,23.05
2023-05-24T09:18:50.830Z,25.30
2023-05-24T09:21:22.483Z,24.55
2023-05-24T09:23:54.683Z,19.55
2023-05-24T09:26:25.590Z,20.45
2023-05-24T09:28:57.925Z,19.67
2023-05-24T09:31:36.180Z,26.10
2023-05-24T09:34:16.971Z,18.10
2023-05-24T09:36:48.729Z,22.23
2023-05-24T09:39:21.111Z,19.98
2023-05-24T09:41:57.548Z,22.13
2023-05-24T09:44:30.851Z,15.90
2023-05-24T09:47:09.117Z,24.58
2023-05-24T09:49:40.039Z,22.13
2023-05-24T09:52:15.133Z,18.58
2023-05-24T09:54:48.343Z,15.13
2023-05-24T09:57:19.067Z,11.45
2023-05-24T09:59:52.741Z,21.77
2023-05-24T10:02:26.106Z,17.70
2023-05-24T10:05:03.930Z,15.82
2023-05-24T10:07:36.151Z,16.10
2023-05-24T10:10:07.896Z,15.05
2023-05-24T10:12:43.213Z,14.23
2023-05-24T10:15:13.534Z,14.88
2023-05-24T10:17:43.800Z,16.42
2023-05-24T10:20:14.622Z,13.73
2023-05-24T10:22:51.640Z,14.73
2023-05-24T10:25:27.788Z,16.88
2023-05-24T10:28:06.979Z,16.08
2023-05-24T10:31:03.895Z,15.70
2023-05-24T10:33:40.525Z,18.92
2023-05-24T10:36:16.259Z,16.38
2023-05-24T10:38:51.288Z,18.23
2023-05-24T10:41:22.535Z,13.73
2023-05-24T10:44:08.495Z,13.85
2023-05-24T10:47:11.316Z,15.88
2023-05-24T10:49:57.903Z,7.88
2023-05-24T10:52:36.774Z,10.55
2023-05-24T10:55:11.800Z,11.57
2023-05-24T10:57:42.434Z,11.13
2023-05-24T11:00:35.110Z,14.55
2023-05-24T11:03:11.436Z,13.00
2023-05-24T11:05:55.605Z,11.63
2023-05-24T11:08:36.123Z,16.75
2023-05-24T11:11:26.502Z,17.40
2023-05-24T11:13:58.227Z,18.63
2023-05-24T11:16:41.351Z,9.65
2023-05-24T11:19:25.168Z,8.02
2023-05-24T11:21:59.154Z,12.52
2023-05-24T11:24:29.291Z,17.48
2023-05-24T11:27:02.682Z,11.30
2023-05-24T11:29:31.340Z,10.55
2023-05-24T11:32:08.009Z,14.30
2023-05-24T11:34:40.126Z,14.50
2023-05-24T11:37:13.394Z,11.93
2023-05-24T11:39:49.616Z,14.77
2023-05-24T11:42:23.286Z,9.50
2023-05-24T11:44:55.579Z,8.45
2023-05-24T11:47:25.325Z,10.23
2023-05-24T11:49:53.187Z,10.23
2023-05-24T11:52:21.519Z,13.02
2023-05-24T11:54:51.411Z,9.27
2023-05-24T11:57:46.255Z,12.20
2023-05-24T12:00:28.474Z,14.18
2023-05-24T12:03:08.184Z,12.40
2023-05-24T12:05:38.404Z,7.68
2023-05-24T12:08:12.528Z,15.32
2023-05-24T12:10:47.433Z,9.10
2023-05-24T12:13:27.060Z,9.70
2023-05-24T12:15:58.458Z,7.43
2023-05-24T12:18:29.924Z,9.20
2023-05-24T12:21:00.598Z,7.53
2023-05-24T12:23:32.942Z,7.40
2023-05-24T12:26:04.666Z,10.57
2023-05-24T12:28:39.155Z,12.52
2023-05-24T12:31:10.282Z,13.07
2023-05-24T12:33:40.532Z,14.63
2023-05-24T12:36:10.926Z,7.22
2023-05-24T12:38:40.532Z,9.43
2023-05-24T12:41:13.911Z,12.40
2023-05-24T12:43:44.760Z,7.63
2023-05-24T12:46:15.181Z,10.75
2023-05-24T12:48:45.709Z,10.50
2023-05-24T12:51:15.922Z,8.80
2023-05-24T12:53:46.594Z,10.02
2023-05-24T12:56:16.909Z,9.88
2023-05-24T12:58:47.582Z,7.82
2023-05-24T13:01:18.366Z,9.68
2023-05-24T13:03:48.797Z,10.00
2023-05-24T13:06:19.303Z,9.93
2023-05-24T13:08:49.739Z,10.52
2023-05-24T13:11:20.203Z,10.13
2023-05-24T13:13:50.423Z,10.65
2023-05-24T13:16:20.726Z,6.32
2023-05-24T13:18:51.523Z,7.03
2023-05-24T13:21:22.421Z,8.55
2023-05-24T13:23:52.679Z,10.77
2023-05-24T13:26:22.104Z,11.93
2023-05-24T13:29:11.769Z,10.25
2023-05-24T13:31:41.065Z,6.93
2023-05-24T13:34:11.743Z,9.23
2023-05-24T13:36:43.799Z,8.57
2023-05-24T13:39:16.542Z,10.15
2023-05-24T13:41:47.467Z,10.50
2023-05-24T13:44:18.378Z,7.53
2023-05-24T13:46:48.861Z,11.15
2023-05-24T13:49:19.165Z,10.32
2023-05-24T13:51:49.906Z,10.15
2023-05-24T13:54:20.128Z,9.80
2023-05-24T13:56:51.059Z,6.63
2023-05-24T13:59:21.335Z,6.43
2023-05-24T14:01:51.590Z,9.52
2023-05-24T14:04:21.948Z,6.85
2023-05-24T14:06:52.647Z,9.05
2023-05-24T14:09:23.819Z,7.90
2023-05-24T14:11:54.265Z,8.50
2023-05-24T14:16:57.594Z,11.32
2023-05-24T14:19:27.917Z,13.27
2023-05-24T14:21:58.156Z,9.98
2023-05-24T14:24:28.442Z,13.48
2023-05-24T14:26:58.663Z,12.13
2023-05-24T14:29:28.880Z,8.93
2023-05-24T14:31:59.204Z,9.68
2023-05-24T14:34:29.448Z,15.80
2023-05-24T14:36:59.635Z,10.88
2023-05-24T14:39:30.497Z,8.63
2023-05-24T14:42:01.514Z,9.43
2023-05-24T14:44:31.832Z,11.30
2023-05-24T14:47:02.056Z,10.07
2023-05-24T14:49:32.229Z,9.93
2023-05-24T14:52:03.618Z,8.93
2023-05-24T14:54:33.806Z,11.63
2023-05-24T14:57:04.371Z,10.68
2023-05-24T14:59:34.788Z,13.57
2023-05-24T15:02:05.225Z,9.77
2023-05-24T15:04:35.467Z,13.40
2023-05-24T15:07:06.029Z,9.30
2023-05-24T15:09:36.279Z,9.00
2023-05-24T15:12:11.732Z,8.98
2023-05-24T15:14:42.338Z,10.45
2023-05-24T15:17:12.945Z,10.27
2023-05-24T15:19:43.129Z,10.77
2023-05-24T15:22:13.479Z,8.68
2023-05-24T15:24:43.678Z,9.82
2023-05-24T15:27:13.908Z,15.27
2023-05-24T15:29:44.317Z,12.73
2023-05-24T15:32:14.575Z,8.00
2023-05-24T15:34:44.876Z,8.35
2023-05-24T15:37:13.323Z,11.02
2023-05-24T15:39:41.621Z,10.57
2023-05-24T15:42:14.075Z,6.75
2023-05-24T15:44:41.510Z,9.18
2023-05-24T15:47:10.142Z,12.48
2023-05-24T15:49:39.577Z,8.73
2023-05-24T15:52:10.809Z,11.35
2023-05-24T15:54:41.366Z,9.48
2023-05-24T15:57:11.811Z,7.32
2023-05-24T15:59:41.989Z,10.13
2023-05-24T16:02:12.485Z,7.93
2023-05-24T16:04:42.800Z,8.57
2023-05-24T16:07:13.152Z,10.60
2023-05-24T16:09:46.401Z,10.15
2023-05-24T16:12:18.343Z,8.38
2023-05-24T16:14:48.672Z,11.07
2023-05-24T16:17:19.388Z,9.50
2023-05-24T16:19:49.847Z,9.00
2023-05-24T16:22:20.092Z,7.63
2023-05-24T16:24:50.487Z,9.38
2023-05-24T16:27:20.729Z,7.57
2023-05-24T16:29:51.529Z,8.18
2023-05-24T16:32:21.757Z,10.38
2023-05-24T16:34:56.255Z,8.88
2023-05-24T16:37:27.498Z,10.57
2023-05-24T16:39:57.757Z,14.10
2023-05-24T16:42:28.401Z,10.45
2023-05-24T16:44:59.060Z,10.10
2023-05-24T16:47:30.017Z,8.50
2023-05-24T16:50:01.138Z,6.72
2023-05-24T16:52:30.379Z,7.55
2023-05-24T16:55:00.829Z,7.78
2023-05-24T16:57:34.573Z,11.00
2023-05-24T17:00:07.957Z,8.23
2023-05-24T17:02:38.087Z,9.25
2023-05-24T17:05:07.456Z,7.25
2023-05-24T17:07:37.138Z,8.48
2023-05-24T17:10:07.531Z,10.60
2023-05-24T17:12:36.196Z,7.80
2023-05-24T17:15:06.317Z,12.70
2023-05-24T17:17:34.113Z,9.82
2023-05-24T17:20:02.742Z,5.85
2023-05-24T17:22:31.463Z,10.63
2023-05-24T17:25:00.032Z,9.75
2023-05-24T17:27:28.446Z,8.63
2023-05-24T17:29:57.584Z,9.80
2023-05-24T17:32:25.954Z,7.25
2023-05-24T17:34:54.449Z,7.80
2023-05-24T17:37:23.352Z,10.75
2023-05-24T17:39:54.532Z,10.88
2023-05-24T17:42:25.543Z,10.43
2023-05-24T17:44:55.376Z,8.60
2023-05-24T17:47:25.158Z,7.43
2023-05-24T17:49:54.015Z,9.30
2023-05-24T17:52:31.647Z,10.48
2023-05-24T17:55:13.587Z,9.63
2023-05-24T17:57:54.397Z,12.02
2023-05-24T18:00:34.747Z,11.65
2023-05-24T18:03:15.836Z,9.40
2023-05-24T18:05:47.471Z,8.27
2023-05-24T18:08:15.905Z,7.15
2023-05-24T18:10:44.302Z,13.00
2023-05-24T18:13:13.288Z,7.65
2023-05-24T18:15:41.347Z,7.15
2023-05-24T18:18:09.715Z,6.18
2023-05-24T18:20:38.187Z,6.45
2023-05-24T18:23:06.459Z,13.85
2023-05-24T18:25:35.719Z,9.95
2023-05-24T18:28:03.425Z,7.80
2023-05-24T18:30:31.706Z,9.52
2023-05-24T18:33:05.370Z,9.27
2023-05-24T18:35:38.477Z,10.13
2023-05-24T18:38:08.818Z,11.43
2023-05-24T18:40:39.143Z,8.68
2023-05-24T18:43:09.442Z,12.65
2023-05-24T18:45:39.692Z,7.90
2023-05-24T18:48:09.894Z,12.63
2023-05-24T18:50:40.136Z,9.00
2023-05-24T18:53:10.443Z,10.05
2023-05-24T18:55:41.041Z,8.00
2023-05-24T18:58:11.416Z,13.85
2023-05-24T19:00:41.842Z,12.23
2023-05-24T19:03:13.482Z,7.65
2023-05-24T19:05:44.486Z,15.55
2023-05-24T19:08:15.037Z,9.82
2023-05-24T19:10:45.395Z,10.52
2023-05-24T19:13:15.964Z,11.43
2023-05-24T19:15:46.407Z,9.02
2023-05-24T19:18:16.801Z,11.55
2023-05-24T19:20:47.386Z,12.43
2023-05-24T19:23:17.795Z,7.97
2023-05-24T19:25:50.370Z,17.02
2023-05-24T19:28:20.837Z,7.82
2023-05-24T19:30:51.180Z,13.00
2023-05-24T19:33:19.723Z,11.88
2023-05-24T19:35:48.813Z,9.73
2023-05-24T19:38:18.103Z,13.32
2023-05-24T19:40:46.173Z,9.43
2023-05-24T19:43:14.433Z,12.57
2023-05-24T19:45:43.071Z,14.10
2023-05-24T19:48:11.327Z,13.25
2023-05-24T19:50:40.819Z,8.55
2023-05-24T19:53:09.180Z,11.68
2023-05-24T19:55:37.588Z,15.40
2023-05-24T19:58:06.070Z,12.48
2023-05-24T20:00:34.858Z,11.38
2023-05-24T20:03:03.200Z,14.00
2023-05-24T20:05:31.632Z,13.20
2023-05-24T20:08:00.071Z,12.60
2023-05-24T20:10:30.331Z,11.40
2023-05-24T20:13:00.226Z,12.10
2023-05-24T20:15:28.949Z,13.07
2023-05-24T20:17:59.728Z,13.23
2023-05-24T20:20:30.103Z,12.90
2023-05-24T20:23:00.541Z,15.25
2023-05-24T20:25:30.763Z,11.30
2023-05-24T20:28:01.086Z,11.10
2023-05-24T20:30:31.550Z,13.65
2023-05-24T20:33:02.175Z,13.60
2023-05-24T20:35:32.430Z,17.63
2023-05-24T20:38:03.012Z,16.40
2023-05-24T20:40:33.350Z,21.17
2023-05-24T20:43:04.239Z,13.23
2023-05-24T20:45:35.131Z,13.65
2023-05-24T20:48:03.130Z,11.07
2023-05-24T20:50:33.421Z,15.38
2023-05-24T20:53:02.422Z,16.60
2023-05-24T20:55:32.665Z,17.40
2023-05-24T20:58:03.243Z,12.90
2023-05-24T21:00:33.539Z,11.88
2023-05-24T21:03:04.009Z,16.42
2023-05-24T21:05:36.585Z,13.00
2023-05-24T21:08:06.563Z,12.73
2023-05-24T21:10:36.102Z,14.48
2023-05-24T21:13:04.491Z,10.65
2023-05-24T21:15:32.180Z,21.85
2023-05-24T21:18:00.761Z,15.15
2023-05-24T21:20:29.352Z,13.68
2023-05-24T21:22:57.778Z,18.92
2023-05-24T21:25:27.334Z,13.98
2023-05-24T21:27:56.324Z,18.60
2023-05-24T21:30:24.561Z,14.43
2023-05-24T21:32:52.845Z,11.23
2023-05-24T21:35:21.327Z,16.30
2023-05-24T21:37:50.027Z,15.55
2023-05-24T21:40:18.556Z,11.40
2023-05-24T21:42:47.153Z,16.25
2023-05-24T21:45:16.656Z,17.50
2023-05-24T21:47:45.268Z,16.00
2023-05-24T21:50:15.765Z,19.50
2023-05-24T21:52:43.991Z,17.17
2023-05-24T21:55:12.438Z,16.45
2023-05-24T21:57:40.924Z,15.35
2023-05-24T22:00:12.782Z,14.15
2023-05-24T22:02:43.243Z,14.32
2023-05-24T22:05:11.845Z,14.13
2023-05-24T22:07:40.134Z,15.70
2023-05-24T22:10:09.334Z,16.17
2023-05-24T22:12:37.045Z,24.02
2023-05-24T22:15:06.768Z,13.40
2023-05-24T22:17:37.132Z,13.20
2023-05-24T22:20:07.849Z,16.45
2023-05-24T22:22:48.998Z,14.25
2023-05-24T22:25:22.335Z,14.88
2023-05-24T22:27:51.820Z,16.73
2023-05-24T22:30:19.762Z,15.90
2023-05-24T22:32:47.724Z,18.95
2023-05-24T22:35:16.434Z,13.52
2023-05-24T22:37:44.718Z,15.77
2023-05-24T22:40:13.831Z,11.98
2023-05-24T22:42:41.666Z,16.88
2023-05-24T22:45:11.067Z,17.40
2023-05-24T22:47:41.309Z,20.50
2023-05-24T22:50:10.264Z,21.58
2023-05-24T22:52:42.603Z,13.82
2023-05-24T22:55:13.035Z,16.55
2023-05-24T22:57:41.825Z,16.85
2023-05-24T23:00:12.332Z,17.77
2023-05-24T23:02:42.769Z,15.05
2023-05-24T23:05:11.721Z,20.55
2023-05-24T23:07:41.542Z,16.88
2023-05-24T23:10:11.915Z,14.95
2023-05-24T23:12:42.451Z,22.73
2023-05-24T23:15:16.947Z,13.70
2023-05-24T23:17:48.379Z,14.75
2023-05-24T23:20:16.382Z,28.15
2023-05-24T23:22:44.831Z,16.50
2023-05-24T23:25:14.379Z,15.50
2023-05-24T23:27:43.053Z,18.38
2023-05-24T23:30:13.383Z,16.45
2023-05-24T23:32:42.089Z,16.08
2023-05-24T23:35:11.309Z,16.13
2023-05-24T23:37:39.624Z,17.17
2023-05-24T23:40:09.465Z,11.52
2023-05-24T23:42:38.054Z,16.00
2023-05-24T23:45:07.433Z,12.90
2023-05-24T23:47:35.106Z,16.52
2023-05-24T23:50:06.223Z,14.38
2023-05-24T23:52:35.527Z,13.68
2023-05-24T23:55:06.521Z,14.07
2023-05-24T23:57:35.893Z,14.82
